Independence of the Seas — C6WW4 — position and weather

sailwx.info

Track history (hours):
 
Tides and Currents Weather Stations Pressure Air Temp Water Temp Dewpoint Dewpoint Depression Visibility Wind Speed Wind Dir Waves Ship Positions

Independence of the Seas

Last reported at 2016-May-30 15:33 UTC. Time now 2016-May-30 20:22 UTC.
Position N 43°35' W 005°33'.

Length 339 m; draft 8.8 m.

Type: Passenger vessel. MMSI: 309374000.

Date/timePositionNaut miles runAvg speedWind from/ knotsBaromVisibWave heightAir tempDewpointWater temp
2016-May-30 15:33N 43°35' W 005°33'5 0.5
2016-May-30 05:32N 43°35' W 005°40'1212.2
2016-May-30 04:32N 43°47' W 005°40'30514.4
2016-May-29 07:22N 48°52' W 005°47'2815.0
2016-May-29 05:32N 49°08' W 005°13'8016.0
2016-May-29 00:32N 49°48' W 003°26'1414.5
2016-May-28 23:33N 49°55' W 003°07'1714.2
2016-May-28 22:21N 50°02' W 002°42'6316.4
2016-May-28 18:31N 50°29' W 001°13'1516.0
2016-May-28 17:34N 50°41' W 000°58'1313.4
2016-May-28 16:33N 50°47' W 001°17'6 0.5
2016-May-28 03:31N 50°52' W 001°22'9 9.0
2016-May-28 02:33N 50°46' W 001°13'1312.6
2016-May-28 01:32N 50°36' W 000°59'9819.2
2016-May-27 20:25N 49°43' W 003°08'1618.8
2016-May-27 19:33N 49°35' W 003°30'2118.6
2016-May-27 18:27N 49°25' W 003°57'1718.5
2016-May-27 17:34N 49°15' W 004°18'3818.9
2016-May-27 15:33N 48°50' W 005°01'1818.3
2016-May-27 14:33N 48°38' W 005°22'60717.8
2016-May-26 04:25N 39°03' W 009°51'1819.4
2016-May-26 03:30N 38°45' W 009°51'5718.4
2016-May-26 00:24N 37°50' W 009°35'10615.4
2016-May-25 17:30N 36°39' W 007°56'123 6.5
2016-May-24 22:34N 35°58' W 005°32'1212.0
2016-May-24 21:33N 36°02' W 005°18'230 9.6
2016-May-23 21:32N 37°22' W 000°49'1919.6
2016-May-23 20:33N 37°36' W 000°32'2020.0
2016-May-23 19:33N 37°53' W 000°18'9414.7
2016-May-23 13:11N 39°26' W 000°17'1 0.1
2016-May-23 05:30N 39°27' W 000°18'8213.0
2016-May-22 23:11N 39°47' E 001°26'1116.0
2016-May-22 22:30N 39°51' E 001°39'1415.2
2016-May-22 21:33N 39°55' E 001°57'1514.7
2016-May-22 20:33N 40°00' E 002°15'1414.4
2016-May-22 19:34N 40°06' E 002°32'1413.9
2016-May-22 18:33N 40°11' E 002°49'1413.9
2016-May-22 17:33N 40°16' E 003°06'2913.3
2016-May-22 15:24N 40°25' E 003°42'12216.7
2016-May-22 08:05N 40°52' E 006°19'1016.9
2016-May-22 07:28N 40°54' E 006°32'20617.1
2016-May-21 19:28N 41°52' E 010°55'1716.7
2016-May-21 18:28N 41°58' E 011°16'102 4.8
2016-May-20 21:12N 43°03' E 009°30'1419.3
2016-May-20 20:27N 43°09' E 009°12'1820.1
2016-May-20 19:34N 43°16' E 008°49'2019.9
2016-May-20 18:33N 43°22' E 008°23'2020.0
2016-May-20 17:33N 43°29' E 007°58'2019.5
2016-May-20 16:31N 43°36' E 007°31'  
Track history (hours):
 
Tides and Currents Weather Stations Pressure Air Temp Water Temp Dewpoint Dewpoint Depression Visibility Wind Speed Wind Dir Waves Ship Positions

Independence of the Seas

Last reported at 2016-May-30 15:33 UTC. Time now 2016-May-30 20:22 UTC.
Position N 43°35' W 005°33'.

Length 339 m; draft 8.8 m.

Type: Passenger vessel. MMSI: 309374000.

Date/timePositionNaut miles runAvg speedWind from/ knotsBaromVisibWave heightAir tempDewpointWater temp
2016-May-30 15:33N 43°35' W 005°33'5 0.5
2016-May-30 05:32N 43°35' W 005°40'1212.2
2016-May-30 04:32N 43°47' W 005°40'30514.4
2016-May-29 07:22N 48°52' W 005°47'2815.0
2016-May-29 05:32N 49°08' W 005°13'8016.0
2016-May-29 00:32N 49°48' W 003°26'1414.5
2016-May-28 23:33N 49°55' W 003°07'1714.2
2016-May-28 22:21N 50°02' W 002°42'6316.4
2016-May-28 18:31N 50°29' W 001°13'1516.0
2016-May-28 17:34N 50°41' W 000°58'1313.4
2016-May-28 16:33N 50°47' W 001°17'6 0.5
2016-May-28 03:31N 50°52' W 001°22'9 9.0
2016-May-28 02:33N 50°46' W 001°13'1312.6
2016-May-28 01:32N 50°36' W 000°59'9819.2
2016-May-27 20:25N 49°43' W 003°08'1618.8
2016-May-27 19:33N 49°35' W 003°30'2118.6
2016-May-27 18:27N 49°25' W 003°57'1718.5
2016-May-27 17:34N 49°15' W 004°18'3818.9
2016-May-27 15:33N 48°50' W 005°01'1818.3
2016-May-27 14:33N 48°38' W 005°22'60717.8
2016-May-26 04:25N 39°03' W 009°51'1819.4
2016-May-26 03:30N 38°45' W 009°51'5718.4
2016-May-26 00:24N 37°50' W 009°35'10615.4
2016-May-25 17:30N 36°39' W 007°56'123 6.5
2016-May-24 22:34N 35°58' W 005°32'1212.0
2016-May-24 21:33N 36°02' W 005°18'230 9.6
2016-May-23 21:32N 37°22' W 000°49'1919.6
2016-May-23 20:33N 37°36' W 000°32'2020.0
2016-May-23 19:33N 37°53' W 000°18'9414.7
2016-May-23 13:11N 39°26' W 000°17'1 0.1
2016-May-23 05:30N 39°27' W 000°18'8213.0
2016-May-22 23:11N 39°47' E 001°26'1116.0
2016-May-22 22:30N 39°51' E 001°39'1415.2
2016-May-22 21:33N 39°55' E 001°57'1514.7
2016-May-22 20:33N 40°00' E 002°15'1414.4
2016-May-22 19:34N 40°06' E 002°32'1413.9
2016-May-22 18:33N 40°11' E 002°49'1413.9
2016-May-22 17:33N 40°16' E 003°06'2913.3
2016-May-22 15:24N 40°25' E 003°42'12216.7
2016-May-22 08:05N 40°52' E 006°19'1016.9
2016-May-22 07:28N 40°54' E 006°32'20617.1
2016-May-21 19:28N 41°52' E 010°55'1716.7
2016-May-21 18:28N 41°58' E 011°16'102 4.8
2016-May-20 21:12N 43°03' E 009°30'1419.3
2016-May-20 20:27N 43°09' E 009°12'1820.1
2016-May-20 19:34N 43°16' E 008°49'2019.9
2016-May-20 18:33N 43°22' E 008°23'2020.0
2016-May-20 17:33N 43°29' E 007°58'2019.5
2016-May-20 16:31N 43°36' E 007°31'  

Dump ship's entire track history